Terminal Aerodrome Forecast
Issued by NWS

Home | Current Version | Previous Version | Text Only | Print | Product List | Glossary On
Versions: 1 2 3 4 5 6 7 8 9 10 11 12 13 14
000
FTUS43 KOAX 032329
TAFCDR
TAF
KCDR 032329Z 0400/0424 01003KT 1SM -SN BKN020
     FM040300 34005KT 2SM -SN BR SCT020 OVC030
     FM040500 28006KT P6SM SKC=

USA.gov is the U.S. government's official web portal to all federal, state and local government web resources and services.